Time;durP1;ratioP1;P1;durP2;ratioP2;P2;SDS_P1;SDS_P2;PMS_P1;PMS_P2;Temp;Humidity;BMP_temperature;BMP_pressure;BME280_temperature;BME280_humidity;BME280_pressure;Samples;Min_cycle;Max_cycle;Signal;HPM_P1;HPM_P2
2021/09/08 00:01:12;;;;;;;35.88;26.33;;;;;;;11.97;100.00;101520.47;2614347;36;20042;-46
2021/09/08 00:03:39;;;;;;;43.45;29.70;;;;;;;11.95;100.00;101512.75;2614523;31;20027;-46
2021/09/08 00:06:07;;;;;;;42.40;31.73;;;;;;;11.96;100.00;101519.63;2614626;36;20038;-52
2021/09/08 00:08:34;;;;;;;40.35;30.75;;;;;;;11.98;100.00;101515.44;2614948;31;20042;-46
2021/09/08 00:11:01;;;;;;;48.28;33.63;;;;;;;12.00;100.00;101515.47;2614967;31;20039;-46
2021/09/08 00:13:29;;;;;;;46.20;33.85;;;;;;;12.00;100.00;101505.19;2614878;36;20562;-51
2021/09/08 00:15:57;;;;;;;41.47;31.08;;;;;;;11.94;100.00;101508.44;2615371;31;20050;-48
2021/09/08 00:18:24;;;;;;;45.53;31.67;;;;;;;11.92;100.00;101504.06;2614246;36;20054;-48
2021/09/08 00:20:51;;;;;;;43.85;32.20;;;;;;;11.92;100.00;101501.50;2614455;36;20073;-51
2021/09/08 00:23:18;;;;;;;46.42;32.45;;;;;;;11.88;100.00;101504.81;2614735;36;20035;-49
2021/09/08 00:25:45;;;;;;;41.95;29.38;;;;;;;11.82;100.00;101494.28;2615031;31;20057;-49
2021/09/08 00:28:12;;;;;;;41.92;30.20;;;;;;;11.75;100.00;101500.91;2615459;31;20045;-48
2021/09/08 00:30:40;;;;;;;40.67;30.42;;;;;;;11.71;100.00;101497.38;2614652;36;20034;-47
2021/09/08 00:33:07;;;;;;;37.15;29.13;;;;;;;11.65;100.00;101504.88;2615643;31;20031;-49
2021/09/08 00:35:34;;;;;;;40.13;29.02;;;;;;;11.65;100.00;101502.31;2615470;31;20062;-48
2021/09/08 00:38:01;;;;;;;40.22;29.20;;;;;;;11.65;100.00;101501.44;2614751;31;20031;-47
2021/09/08 00:40:28;;;;;;;40.70;30.05;;;;;;;11.63;100.00;101510.75;2616195;31;20038;-50
2021/09/08 00:42:56;;;;;;;40.45;29.33;;;;;;;11.59;100.00;101509.75;2615519;31;20030;-47
2021/09/08 00:45:23;;;;;;;42.20;30.50;;;;;;;11.62;100.00;101501.31;2615063;31;20035;-51
2021/09/08 00:47:50;;;;;;;42.70;30.33;;;;;;;11.59;100.00;101512.34;2615070;31;20026;-53
2021/09/08 00:50:17;;;;;;;40.05;29.92;;;;;;;11.55;100.00;101505.34;2615242;36;20458;-48
2021/09/08 00:52:47;;;;;;;36.65;29.08;;;;;;;11.53;100.00;101503.56;2615938;31;20052;-47
2021/09/08 00:55:14;;;;;;;45.78;33.60;;;;;;;11.54;100.00;101511.31;2615071;36;20590;-46
2021/09/08 00:57:44;;;;;;;47.85;34.80;;;;;;;11.63;100.00;101510.75;2615027;36;20038;-49
2021/09/08 01:00:11;;;;;;;48.92;33.80;;;;;;;11.61;100.00;101513.28;2616286;31;20090;-47
2021/09/08 01:02:40;;;;;;;51.13;36.63;;;;;;;11.66;100.00;101516.00;2616110;31;20035;-51
2021/09/08 01:05:08;;;;;;;48.03;34.25;;;;;;;11.70;100.00;101508.47;2616221;31;20034;-47
2021/09/08 01:07:36;;;;;;;53.60;36.33;;;;;;;11.70;100.00;101505.03;2614978;36;20118;-48
2021/09/08 01:10:04;;;;;;;53.55;37.70;;;;;;;11.67;100.00;101502.34;2618064;31;20041;-53
2021/09/08 01:12:32;;;;;;;55.78;37.35;;;;;;;11.64;100.00;101497.09;2616034;36;20042;-48
2021/09/08 01:14:59;;;;;;;50.78;36.92;;;;;;;11.66;100.00;101495.47;2616390;31;20034;-49
2021/09/08 01:17:26;;;;;;;52.75;36.28;;;;;;;11.67;100.00;101499.78;2615567;31;20578;-50
2021/09/08 01:19:53;;;;;;;55.25;37.05;;;;;;;11.64;100.00;101500.53;2615429;36;20042;-48
2021/09/08 01:22:28;;;;;;;53.58;36.55;;;;;;;11.61;100.00;101507.28;2615925;31;20042;-46
2021/09/08 01:24:56;;;;;;;54.05;36.72;;;;;;;11.58;100.00;101502.91;2615043;36;20043;-51
2021/09/08 01:27:26;;;;;;;57.80;38.20;;;;;;;11.58;100.00;101500.34;2615119;36;20026;-47
2021/09/08 01:29:54;;;;;;;61.38;37.67;;;;;;;11.56;100.00;101504.56;2615544;36;20924;-48
2021/09/08 01:32:30;;;;;;;59.00;37.63;;;;;;;11.50;100.00;101506.00;2615348;36;20190;-46
2021/09/08 01:34:57;;;;;;;56.72;38.22;;;;;;;11.49;100.00;101497.44;2615359;36;20038;-49
2021/09/08 01:37:25;;;;;;;51.30;34.90;;;;;;;11.42;100.00;101496.38;2615432;31;20071;-48
2021/09/08 01:39:52;;;;;;;57.10;38.03;;;;;;;11.39;100.00;101495.38;2615213;36;20038;-51
2021/09/08 01:42:19;;;;;;;59.90;38.22;;;;;;;11.33;100.00;101498.63;2615535;31;20559;-49
2021/09/08 01:44:47;;;;;;;54.58;36.92;;;;;;;11.30;100.00;101500.19;2615377;36;20026;-48
2021/09/08 01:47:14;;;;;;;49.10;35.45;;;;;;;11.23;100.00;101499.06;2615699;31;20038;-45
2021/09/08 01:49:41;;;;;;;51.22;36.05;;;;;;;11.19;100.00;101492.13;2615451;36;20046;-47
2021/09/08 01:52:08;;;;;;;58.25;37.35;;;;;;;11.16;100.00;101494.56;2616348;31;20610;-48
2021/09/08 01:54:36;;;;;;;54.92;37.00;;;;;;;11.13;100.00;101490.19;2615753;36;20042;-48
2021/09/08 01:57:03;;;;;;;57.03;38.90;;;;;;;11.22;100.00;101497.34;2615257;36;20518;-50
2021/09/08 01:59:31;;;;;;;61.20;39.92;;;;;;;11.24;100.00;101493.16;2615620;36;20450;-45
2021/09/08 02:01:58;;;;;;;59.03;39.13;;;;;;;11.17;100.00;101493.75;2615546;31;20058;-48
2021/09/08 02:04:26;;;;;;;52.58;37.53;;;;;;;11.10;100.00;101492.66;2615283;36;20026;-52
2021/09/08 02:06:53;;;;;;;52.28;36.33;;;;;;;11.03;100.00;101492.38;2614895;36;20061;-47
2021/09/08 02:09:21;;;;;;;55.25;37.47;;;;;;;10.99;100.00;101483.69;2615620;31;20039;-46
2021/09/08 02:11:48;;;;;;;54.20;37.38;;;;;;;10.96;100.00;101479.34;2615986;31;20038;-50
2021/09/08 02:14:15;;;;;;;59.45;38.70;;;;;;;10.96;100.00;101484.47;2615146;36;20058;-51
2021/09/08 02:16:44;;;;;;;59.47;39.13;;;;;;;10.95;100.00;101485.28;2614820;36;20030;-46
2021/09/08 02:19:11;;;;;;;56.75;36.42;;;;;;;10.91;100.00;101482.56;2614676;36;20575;-50
2021/09/08 02:21:38;;;;;;;54.67;38.53;;;;;;;10.90;100.00;101480.78;2616040;31;20057;-48
2021/09/08 02:24:05;;;;;;;52.60;38.75;;;;;;;10.88;100.00;101475.63;2615698;31;20046;-47
2021/09/08 02:26:33;;;;;;;53.75;38.42;;;;;;;10.95;100.00;101484.38;2615533;31;20061;-47
2021/09/08 02:29:00;;;;;;;60.80;40.58;;;;;;;10.96;100.00;101481.91;2614930;36;20038;-52
2021/09/08 02:31:27;;;;;;;65.38;41.00;;;;;;;10.96;100.00;101479.34;2615058;36;20078;-48
2021/09/08 02:33:55;;;;;;;60.78;41.03;;;;;;;10.94;100.00;101480.09;2615581;31;20034;-46
2021/09/08 02:36:23;;;;;;;57.08;39.50;;;;;;;10.96;100.00;101475.91;2616101;31;20069;-48
2021/09/08 02:38:51;;;;;;;60.08;40.75;;;;;;;10.99;100.00;101470.88;2614731;36;20026;-47
2021/09/08 02:41:19;;;;;;;69.90;44.08;;;;;;;11.06;100.00;101470.28;2615719;31;20057;-47
2021/09/08 02:43:46;;;;;;;64.90;42.90;;;;;;;11.03;100.00;101466.75;2615341;31;20038;-48
2021/09/08 02:46:13;;;;;;;63.00;39.25;;;;;;;11.03;100.00;101466.75;2615013;31;20038;-47
2021/09/08 02:48:40;;;;;;;59.47;40.17;;;;;;;10.96;100.00;101469.09;2615422;31;20034;-48
2021/09/08 02:51:07;;;;;;;60.83;40.50;;;;;;;10.93;100.00;101475.78;2614729;36;20053;-45
2021/09/08 02:53:35;;;;;;;63.58;39.05;;;;;;;10.89;100.00;101479.91;2615517;31;20074;-52
2021/09/08 02:56:02;;;;;;;69.25;43.15;;;;;;;11.04;100.00;101476.16;2616486;31;20874;-48
2021/09/08 02:58:31;;;;;;;70.78;45.92;;;;;;;11.06;100.00;101469.44;2614408;31;20033;-47
2021/09/08 03:00:58;;;;;;;72.07;44.67;;;;;;;11.15;100.00;101480.00;2614512;36;20035;-48
2021/09/08 03:03:25;;;;;;;67.80;46.28;;;;;;;11.17;100.00;101480.94;2614818;36;20164;-47
2021/09/08 03:05:53;;;;;;;85.00;51.00;;;;;;;11.20;100.00;101478.47;2614902;36;20022;-47
2021/09/08 03:08:20;;;;;;;77.90;50.08;;;;;;;11.17;100.00;101475.78;2614629;36;20026;-48
2021/09/08 03:10:47;;;;;;;85.32;49.70;;;;;;;11.09;100.00;101469.50;2615420;31;20038;-49
2021/09/08 03:13:16;;;;;;;92.88;52.58;;;;;;;11.15;100.00;101470.63;2615888;31;20041;-47
2021/09/08 03:15:44;;;;;;;90.05;52.40;;;;;;;11.22;100.00;101471.69;2615478;31;20041;-52
2021/09/08 03:18:12;;;;;;;81.85;49.15;;;;;;;11.15;100.00;101477.44;2614670;36;20035;-51
2021/09/08 03:20:39;;;;;;;77.60;48.38;;;;;;;11.09;100.00;101470.41;2616742;31;20022;-51
2021/09/08 03:23:07;;;;;;;73.22;44.75;;;;;;;11.04;100.00;101473.59;2614837;36;20034;-50
2021/09/08 03:25:34;;;;;;;86.93;49.60;;;;;;;11.08;100.00;101473.78;2614615;36;20031;-48
2021/09/08 03:28:01;;;;;;;74.70;48.17;;;;;;;11.05;100.00;101472.81;2614597;36;20057;-46
2021/09/08 03:30:28;;;;;;;85.95;50.53;;;;;;;11.04;100.00;101477.03;2615005;36;20042;-50
2021/09/08 03:32:55;;;;;;;73.30;45.95;;;;;;;11.01;100.00;101466.69;2615261;36;20082;-48
2021/09/08 03:35:22;;;;;;;69.10;42.53;;;;;;;10.93;100.00;101466.41;2616202;31;20031;-48
2021/09/08 03:37:50;;;;;;;69.38;43.55;;;;;;;10.95;100.00;101471.56;2615512;31;20133;-45
2021/09/08 03:40:17;;;;;;;61.17;41.83;;;;;;;10.92;100.00;101467.22;2615739;31;20571;-49
2021/09/08 03:42:44;;;;;;;62.28;40.80;;;;;;;10.86;100.00;101474.69;2614970;31;20030;-48
2021/09/08 03:45:12;;;;;;;59.38;40.88;;;;;;;10.86;100.00;101472.13;2614759;36;20031;-48
2021/09/08 03:47:40;;;;;;;60.78;42.60;;;;;;;10.87;100.00;101478.13;2615644;31;20031;-50
2021/09/08 03:50:09;;;;;;;63.05;43.55;;;;;;;10.87;100.00;101473.88;2615545;36;20034;-49
2021/09/08 03:52:36;;;;;;;60.25;41.55;;;;;;;10.82;100.00;101470.28;2617259;31;20038;-51
2021/09/08 03:55:04;;;;;;;61.60;41.72;;;;;;;10.76;100.00;101467.47;2615575;31;20019;-48
2021/09/08 03:57:32;;;;;;;53.67;40.33;;;;;;;10.76;100.00;101470.03;2614899;31;20030;-49
2021/09/08 03:59:59;;;;;;;56.05;41.20;;;;;;;10.79;100.00;101466.72;2614539;36;20038;-47
2021/09/08 04:02:26;;;;;;;59.63;42.40;;;;;;;10.74;100.00;101470.81;2614626;36;20058;-45
2021/09/08 04:04:54;;;;;;;60.80;43.00;;;;;;;10.68;100.00;101468.88;2614518;36;20065;-46
2021/09/08 04:07:21;;;;;;;58.72;42.67;;;;;;;10.64;100.00;101467.03;2613944;36;20046;-50
2021/09/08 04:09:48;;;;;;;61.28;44.92;;;;;;;10.66;100.00;101473.06;2615340;31;20034;-51
2021/09/08 04:12:15;;;;;;;62.85;42.40;;;;;;;10.59;100.00;101476.22;2614437;36;20046;-50
2021/09/08 04:14:42;;;;;;;62.63;44.72;;;;;;;10.59;100.00;101469.41;2615298;31;20050;-45
2021/09/08 04:17:09;;;;;;;67.30;44.75;;;;;;;10.56;100.00;101471.84;2615577;31;20031;-50
2021/09/08 04:19:37;;;;;;;66.63;45.17;;;;;;;10.49;100.00;101463.84;2615416;36;20022;-49
2021/09/08 04:22:04;;;;;;;68.35;45.72;;;;;;;10.44;100.00;101462.03;2615344;36;20562;-46
2021/09/08 04:24:31;;;;;;;71.47;47.30;;;;;;;10.44;100.00;101459.47;2615559;31;20030;-50
2021/09/08 04:26:58;;;;;;;71.13;47.30;;;;;;;10.41;100.00;101458.47;2615613;31;20046;-48
2021/09/08 04:29:25;;;;;;;73.65;47.17;;;;;;;10.37;100.00;101460.03;2616125;36;20452;-49
2021/09/08 04:31:52;;;;;;;74.85;47.65;;;;;;;10.36;100.00;101463.41;2615697;36;20045;-46
2021/09/08 04:34:19;;;;;;;78.80;49.17;;;;;;;10.31;100.00;101452.13;2616141;31;20019;-47
2021/09/08 04:36:46;;;;;;;73.40;45.90;;;;;;;10.29;100.00;101453.72;2616037;36;20450;-48
2021/09/08 04:39:14;;;;;;;77.07;48.17;;;;;;;10.30;100.00;101452.03;2615319;36;20578;-46
2021/09/08 04:41:41;;;;;;;71.13;45.67;;;;;;;10.29;100.00;101450.28;2616095;31;20455;-46
2021/09/08 04:44:08;;;;;;;73.05;48.53;;;;;;;10.31;100.00;101456.38;2615404;36;20038;-46
2021/09/08 04:46:35;;;;;;;79.97;48.20;;;;;;;10.32;100.00;101453.00;2615494;31;20053;-47
2021/09/08 04:49:02;;;;;;;76.72;49.88;;;;;;;10.33;100.00;101447.91;2614870;31;20031;-48
2021/09/08 04:51:30;;;;;;;80.85;49.17;;;;;;;10.33;100.00;101450.47;2614518;31;20034;-48
2021/09/08 04:53:57;;;;;;;81.38;50.97;;;;;;;10.37;100.00;101443.78;2615777;36;20045;-45
2021/09/08 04:56:24;;;;;;;84.70;51.25;;;;;;;10.49;100.00;101456.19;2616003;31;20034;-47
2021/09/08 04:58:54;;;;;;;80.43;51.30;;;;;;;10.51;100.00;101450.31;2615524;31;20582;-46
2021/09/08 05:01:21;;;;;;;84.97;51.63;;;;;;;10.55;100.00;101443.63;2616125;31;20042;-47
2021/09/08 05:03:48;;;;;;;91.18;54.53;;;;;;;10.60;100.00;101450.66;2615916;36;20026;-50
2021/09/08 05:06:16;;;;;;;82.75;52.70;;;;;;;10.63;100.00;101458.47;2615667;36;20050;-47
2021/09/08 05:08:43;;;;;;;85.45;52.58;;;;;;;10.67;100.00;101454.31;2615890;36;20061;-49
2021/09/08 05:11:10;;;;;;;87.80;51.92;;;;;;;10.71;100.00;101456.19;2616971;31;20038;-49
2021/09/08 05:13:37;;;;;;;94.20;55.72;;;;;;;10.75;100.00;101460.59;2615580;36;20042;-52
2021/09/08 05:16:08;;;;;;;89.13;54.28;;;;;;;10.79;100.00;101462.47;2615672;31;20031;-52
2021/09/08 05:18:35;;;;;;;91.93;54.53;;;;;;;10.86;100.00;101450.75;2615546;31;20029;-45
2021/09/08 05:21:03;;;;;;;92.13;56.60;;;;;;;10.94;100.00;101452.78;2615579;36;20027;-45
2021/09/08 05:23:30;;;;;;;88.60;56.50;;;;;;;11.02;100.00;101459.88;2615096;36;20086;-53
2021/09/08 05:25:57;;;;;;;97.55;56.90;;;;;;;11.07;100.00;101464.34;2615094;36;20030;-49
2021/09/08 05:28:24;;;;;;;87.75;54.40;;;;;;;11.05;100.00;101457.44;2615260;36;20042;-48
2021/09/08 05:30:52;;;;;;;87.75;53.30;;;;;;;11.12;100.00;101456.81;2615119;36;20038;-46
2021/09/08 05:33:19;;;;;;;85.03;52.72;;;;;;;11.17;100.00;101458.72;2616187;31;20022;-46
2021/09/08 05:35:46;;;;;;;85.07;55.42;;;;;;;11.22;100.00;101461.44;2615958;31;20065;-50
2021/09/08 05:38:13;;;;;;;84.68;54.70;;;;;;;11.31;100.00;101461.78;2615493;36;20478;-48
2021/09/08 05:40:40;;;;;;;81.38;53.88;;;;;;;11.40;100.00;101450.97;2615832;36;20774;-51
2021/09/08 05:43:07;;;;;;;80.82;52.65;;;;;;;11.49;100.00;101451.28;2615951;31;20053;-49
2021/09/08 05:45:34;;;;;;;79.70;52.90;;;;;;;11.58;100.00;101459.28;2615722;31;20046;-48
2021/09/08 05:48:02;;;;;;;81.60;52.13;;;;;;;11.65;100.00;101460.38;2616015;31;20022;-47
2021/09/08 05:50:29;;;;;;;79.03;49.60;;;;;;;11.72;100.00;101457.19;2616714;31;20034;-51
2021/09/08 05:52:56;;;;;;;72.93;48.70;;;;;;;11.81;100.00;101454.94;2616593;31;20038;-48
2021/09/08 05:55:28;;;;;;;76.82;49.72;;;;;;;11.90;100.00;101460.41;2614710;36;20040;-46
2021/09/08 05:57:55;;;;;;;71.20;46.25;;;;;;;11.96;100.00;101458.00;2614414;36;20031;-50
2021/09/08 06:00:23;;;;;;;64.15;43.97;;;;;;;12.05;100.00;101459.13;2615363;36;20030;-48
2021/09/08 06:02:50;;;;;;;60.85;41.85;;;;;;;12.10;100.00;101460.16;2615948;31;20578;-46
2021/09/08 06:05:18;;;;;;;59.50;39.70;;;;;;;12.25;100.00;101458.09;2615603;36;20034;-49
2021/09/08 08:02:30;;;;;;;28.00;15.70;;;;;;;19.38;82.78;101451.94;2615009;36;20483;-53
2021/09/08 08:04:57;;;;;;;28.27;14.43;;;;;;;19.47;80.13;101443.31;2615749;36;20041;-51
2021/09/08 08:07:24;;;;;;;26.65;15.63;;;;;;;20.05;79.34;101451.97;2615615;31;20029;-52
2021/09/08 08:09:51;;;;;;;22.23;14.10;;;;;;;20.58;76.64;101451.03;2615549;31;20037;-53
2021/09/08 08:12:18;;;;;;;23.83;14.52;;;;;;;20.49;77.14;101443.25;2616097;31;20038;-51
2021/09/08 08:14:45;;;;;;;20.45;15.63;;;;;;;20.75;76.02;101444.88;2615736;36;20030;-50
2021/09/08 08:17:13;;;;;;;21.42;14.02;;;;;;;20.54;75.25;101443.25;2615245;36;20035;-53
2021/09/08 08:19:40;;;;;;;24.90;14.75;;;;;;;20.68;74.25;101440.59;2616508;31;20555;-51
2021/09/08 08:22:07;;;;;;;20.63;13.35;;;;;;;21.18;72.71;101442.06;2617062;31;20039;-53
2021/09/08 08:24:34;;;;;;;17.52;13.27;;;;;;;21.47;71.26;101437.56;2615838;31;20562;-53
2021/09/08 08:27:01;;;;;;;26.70;13.43;;;;;;;21.98;69.25;101437.13;2615504;36;20145;-53
2021/09/08 08:29:28;;;;;;;21.42;12.85;;;;;;;22.27;67.45;101435.13;2616150;31;20050;-50
2021/09/08 08:31:56;;;;;;;21.33;14.43;;;;;;;21.96;68.38;101438.91;2615009;36;20030;-55
2021/09/08 08:34:23;;;;;;;24.17;13.00;;;;;;;21.92;71.08;101427.63;2615496;36;20542;-49
2021/09/08 08:36:50;;;;;;;20.45;14.52;;;;;;;21.42;73.48;101428.06;2616900;31;20450;-53
2021/09/08 08:39:18;;;;;;;21.48;14.40;;;;;;;21.01;73.15;101430.00;2616406;31;20042;-48
2021/09/08 08:41:45;;;;;;;22.48;14.43;;;;;;;20.99;75.90;101423.94;2616014;36;20455;-49
2021/09/08 08:44:15;;;;;;;21.25;14.15;;;;;;;20.84;75.58;101422.31;2615427;36;20038;-52
2021/09/08 08:46:43;;;;;;;22.90;15.18;;;;;;;20.79;75.68;101420.56;2616034;36;20437;-52
2021/09/08 08:49:11;;;;;;;25.25;14.10;;;;;;;20.75;77.63;101424.06;2615679;36;20042;-49
2021/09/08 08:51:38;;;;;;;23.17;14.77;;;;;;;20.83;77.11;101424.88;2615270;36;20049;-47
2021/09/08 08:54:05;;;;;;;20.45;14.60;;;;;;;21.07;76.71;101424.75;2615783;36;20041;-47
2021/09/08 08:56:32;;;;;;;25.67;15.25;;;;;;;21.16;77.13;101428.19;2616005;36;20035;-51
2021/09/08 08:58:59;;;;;;;26.13;14.15;;;;;;;21.02;75.18;101421.31;2615227;36;20034;-48
2021/09/08 09:01:26;;;;;;;19.60;14.38;;;;;;;21.39;74.17;101426.31;2615508;36;20574;-51
2021/09/08 09:04:14;;;;;;;23.23;14.00;;;;;;;21.43;76.41;101430.63;2617076;31;20570;-51
2021/09/08 09:06:46;;;;;;;16.52;13.20;;;;;;;21.34;72.47;101420.28;2616997;31;20030;-51
2021/09/08 09:09:16;;;;;;;15.48;11.70;;;;;;;21.35;73.32;101427.22;2616515;31;20026;-51
2021/09/08 09:11:48;;;;;;;16.92;11.85;;;;;;;21.32;72.43;101425.50;2615097;36;20034;-49
2021/09/08 09:14:17;;;;;;;18.05;12.32;;;;;;;21.68;70.58;101423.50;2614919;36;20038;-49
2021/09/08 09:16:45;;;;;;;19.23;12.75;;;;;;;21.89;70.68;101422.44;2614776;31;20038;-48
2021/09/08 09:19:12;;;;;;;15.45;12.20;;;;;;;21.97;72.40;101419.75;2614831;31;20034;-48
2021/09/08 09:21:40;;;;;;;14.15;12.25;;;;;;;22.12;70.60;101422.25;2614695;36;20042;-49
2021/09/08 09:24:08;;;;;;;14.98;11.93;;;;;;;22.49;67.94;101416.63;2615137;31;20034;-50
2021/09/08 09:26:38;;;;;;;14.32;11.02;;;;;;;22.76;68.21;101425.84;2614032;36;20057;-51
2021/09/08 09:29:09;;;;;;;17.15;12.63;;;;;;;22.82;72.01;101424.00;2614277;31;20046;-49
2021/09/08 09:31:53;;;;;;;15.50;11.88;;;;;;;22.60;68.64;101420.84;2613712;31;20588;-51
2021/09/08 09:34:22;;;;;;;13.63;11.20;;;;;;;22.50;70.96;101413.13;2578709;31;2004446;-51
2021/09/08 09:36:53;;;;;;;11.65;10.40;;;;;;;22.17;69.82;101411.75;2615391;36;20033;-51
2021/09/08 09:39:22;;;;;;;15.27;11.63;;;;;;;22.36;69.88;101410.66;2579030;36;2004465;-50
2021/09/08 09:41:49;;;;;;;17.17;11.82;;;;;;;22.15;72.99;101405.69;2615263;36;20030;-49
2021/09/08 09:44:16;;;;;;;15.00;11.82;;;;;;;22.49;68.86;101400.94;2616027;31;20035;-49
2021/09/08 09:46:45;;;;;;;15.80;11.35;;;;;;;22.45;68.67;101397.50;2615609;31;20033;-49
2021/09/08 09:49:13;;;;;;;14.15;11.90;;;;;;;22.46;69.92;101404.44;2615351;31;20045;-50
2021/09/08 09:51:41;;;;;;;18.27;11.80;;;;;;;22.58;69.84;101406.06;2615085;36;20034;-48
2021/09/08 09:54:09;;;;;;;12.63;11.25;;;;;;;22.92;68.01;101396.03;2614972;36;20581;-47
2021/09/08 09:56:41;;;;;;;16.67;12.02;;;;;;;23.00;68.25;101404.66;2615214;36;20577;-48
2021/09/08 09:59:08;;;;;;;14.93;11.90;;;;;;;23.20;66.25;101400.88;2614973;31;20030;-49
2021/09/08 10:01:36;;;;;;;12.48;11.10;;;;;;;25.67;57.80;101392.41;2615179;31;20030;-49
2021/09/08 10:04:04;;;;;;;14.63;10.80;;;;;;;26.65;53.01;101390.59;2615705;31;20462;-50
2021/09/08 10:06:38;;;;;;;14.52;10.23;;;;;;;30.45;44.50;101405.31;2615028;31;20031;-47
2021/09/08 10:09:12;;;;;;;11.85;10.50;;;;;;;31.17;40.86;101402.78;2614786;31;20030;-51
2021/09/08 10:11:51;;;;;;;10.93;9.82;;;;;;;30.29;40.38;101391.97;2614780;31;20085;-48
2021/09/08 10:14:25;;;;;;;11.82;10.52;;;;;;;31.18;40.74;101393.91;2615540;31;20325;-45
2021/09/08 10:16:52;;;;;;;11.85;10.18;;;;;;;31.87;37.01;101390.47;2578809;36;2004378;-45
2021/09/08 10:19:24;;;;;;;10.90;9.80;;;;;;;31.83;37.13;101377.47;2615148;36;20041;-45
2021/09/08 10:21:53;;;;;;;10.57;9.60;;;;;;;35.33;33.34;101382.28;2577744;36;2004277;-45
2021/09/08 10:24:24;;;;;;;10.27;8.93;;;;;;;32.28;35.75;101378.59;2614435;31;20030;-45
2021/09/08 10:26:52;;;;;;;12.48;10.20;;;;;;;33.19;33.41;101375.28;2577026;36;2004422;-47
2021/09/08 10:29:26;;;;;;;13.68;10.00;;;;;;;33.06;35.26;101382.25;2613544;36;20030;-47
2021/09/08 22:46:13;;;;;;;25.52;20.13;;;;;;;14.88;100.00;100870.97;2605000;36;23998;-45
2021/09/08 22:48:41;;;;;;;24.38;20.63;;;;;;;14.83;100.00;100870.91;2615131;31;20061;-48
2021/09/08 22:51:08;;;;;;;28.33;22.13;;;;;;;14.76;100.00;100866.56;2614428;31;20042;-44
2021/09/08 22:53:35;;;;;;;27.38;22.17;;;;;;;14.70;100.00;100861.34;2614704;36;20045;-42
2021/09/08 22:56:02;;;;;;;26.73;21.67;;;;;;;14.67;100.00;100861.28;2615138;36;20080;-46
2021/09/08 22:58:29;;;;;;;27.65;21.73;;;;;;;14.66;100.00;100857.00;2614956;31;20027;-50
2021/09/08 23:00:57;;;;;;;29.95;23.13;;;;;;;14.64;100.00;100856.09;2614642;31;20023;-44
2021/09/08 23:03:24;;;;;;;27.65;22.67;;;;;;;14.62;100.00;100857.81;2614281;36;20065;-44
2021/09/08 23:05:51;;;;;;;27.08;21.73;;;;;;;14.57;100.00;100855.16;2614383;36;20030;-46
2021/09/08 23:08:18;;;;;;;27.77;22.48;;;;;;;14.58;100.00;100864.63;2614942;31;20077;-45
2021/09/08 23:10:45;;;;;;;26.80;22.67;;;;;;;14.51;100.00;100866.28;2614998;36;20037;-46
2021/09/08 23:13:12;;;;;;;29.10;24.27;;;;;;;14.54;100.00;100860.28;2615069;31;20031;-43
2021/09/08 23:15:39;;;;;;;31.27;24.13;;;;;;;14.50;100.00;100855.94;2614505;36;20031;-46
2021/09/08 23:18:07;;;;;;;28.88;23.10;;;;;;;14.48;100.00;100855.06;2614750;36;20409;-45
2021/09/08 23:20:34;;;;;;;27.90;21.95;;;;;;;14.51;100.00;100848.22;2614798;36;20034;-45
2021/09/08 23:23:03;;;;;;;32.25;22.80;;;;;;;14.46;100.00;100846.41;2615275;31;20034;-44
2021/09/08 23:25:31;;;;;;;30.00;23.58;;;;;;;14.46;100.00;100843.81;2615500;31;20114;-47
2021/09/08 23:27:58;;;;;;;30.63;23.33;;;;;;;14.42;100.00;100836.88;2616022;31;20034;-44
2021/09/08 23:30:25;;;;;;;29.10;23.33;;;;;;;14.36;100.00;100849.72;2615992;31;20498;-44
2021/09/08 23:32:53;;;;;;;27.88;22.33;;;;;;;14.33;100.00;100836.78;2614756;31;20675;-43
2021/09/08 23:35:20;;;;;;;30.75;23.33;;;;;;;14.29;100.00;100838.47;2614971;31;20412;-45
2021/09/08 23:37:48;;;;;;;32.70;23.58;;;;;;;14.27;100.00;100837.56;2614762;31;20023;-45
2021/09/08 23:40:15;;;;;;;30.73;22.88;;;;;;;14.25;100.00;100844.44;2616165;36;20438;-45
2021/09/08 23:42:42;;;;;;;31.33;24.20;;;;;;;14.26;100.00;100838.41;2615315;36;20057;-46
2021/09/08 23:45:09;;;;;;;31.80;24.15;;;;;;;14.22;100.00;100840.09;2615193;36;20038;-45
2021/09/08 23:47:37;;;;;;;29.15;23.73;;;;;;;14.18;100.00;100837.44;2616450;31;20034;-46
2021/09/08 23:50:05;;;;;;;30.58;24.42;;;;;;;14.22;100.00;100831.50;2615561;36;20153;-48
2021/09/08 23:52:33;;;;;;;28.48;23.55;;;;;;;14.17;100.00;100833.16;2615570;31;20041;-44
2021/09/08 23:55:00;;;;;;;34.67;23.33;;;;;;;14.14;100.00;100822.78;2615085;36;20086;-44
2021/09/08 23:57:27;;;;;;;32.78;24.42;;;;;;;14.10;100.00;100827.06;2615429;31;20030;-44
2021/09/08 23:59:54;;;;;;;29.02;24.25;;;;;;;14.11;100.00;100823.63;2615901;31;20132;-49
